sensor_id;sensor_type;location;lat;lon;timestamp;P1;durP1;ratioP1;P2;durP2;ratioP2
26502;SDS011;14177;51.520;6.764;2022-10-16T00:04:13;7.43;;;2.97;;
26502;SDS011;14177;51.520;6.764;2022-10-16T00:10:43;8.40;;;2.95;;
26502;SDS011;14177;51.520;6.764;2022-10-16T00:20:37;6.68;;;2.72;;
26502;SDS011;14177;51.520;6.764;2022-10-16T00:25:57;5.22;;;2.40;;
26502;SDS011;14177;51.520;6.764;2022-10-16T00:28:29;7.40;;;2.63;;
26502;SDS011;14177;51.520;6.764;2022-10-16T00:31:26;8.80;;;2.50;;
26502;SDS011;14177;51.520;6.764;2022-10-16T00:34:20;8.52;;;2.70;;
26502;SDS011;14177;51.520;6.764;2022-10-16T00:37:00;5.90;;;1.95;;
26502;SDS011;14177;51.520;6.764;2022-10-16T00:39:27;5.63;;;2.38;;
26502;SDS011;14177;51.520;6.764;2022-10-16T00:47:54;9.20;;;2.85;;
26502;SDS011;14177;51.520;6.764;2022-10-16T00:50:31;14.73;;;3.42;;
26502;SDS011;14177;51.520;6.764;2022-10-16T00:53:00;10.75;;;4.57;;
26502;SDS011;14177;51.520;6.764;2022-10-16T00:58:46;10.65;;;3.58;;
26502;SDS011;14177;51.520;6.764;2022-10-16T01:06:02;9.57;;;3.15;;
26502;SDS011;14177;51.520;6.764;2022-10-16T01:09:34;6.43;;;2.95;;
26502;SDS011;14177;51.520;6.764;2022-10-16T01:16:02;9.45;;;3.17;;
26502;SDS011;14177;51.520;6.764;2022-10-16T01:26:10;7.63;;;2.45;;
26502;SDS011;14177;51.520;6.764;2022-10-16T01:37:25;5.00;;;1.55;;
26502;SDS011;14177;51.520;6.764;2022-10-16T01:39:45;2.70;;;1.40;;
26502;SDS011;14177;51.520;6.764;2022-10-16T01:43:08;4.15;;;1.58;;
26502;SDS011;14177;51.520;6.764;2022-10-16T01:45:54;4.40;;;1.73;;
26502;SDS011;14177;51.520;6.764;2022-10-16T01:48:47;6.40;;;1.50;;
26502;SDS011;14177;51.520;6.764;2022-10-16T01:51:57;3.70;;;1.58;;
26502;SDS011;14177;51.520;6.764;2022-10-16T01:55:12;3.78;;;1.40;;
26502;SDS011;14177;51.520;6.764;2022-10-16T01:58:30;2.88;;;1.30;;
26502;SDS011;14177;51.520;6.764;2022-10-16T02:23:35;6.60;;;3.28;;
26502;SDS011;14177;51.520;6.764;2022-10-16T02:44:03;14.57;;;5.40;;
26502;SDS011;14177;51.520;6.764;2022-10-16T02:49:38;10.52;;;4.75;;
26502;SDS011;14177;51.520;6.764;2022-10-16T02:53:47;9.90;;;4.68;;
26502;SDS011;14177;51.520;6.764;2022-10-16T02:57:24;12.82;;;5.03;;
26502;SDS011;14177;51.520;6.764;2022-10-16T03:04:43;12.27;;;5.32;;
26502;SDS011;14177;51.520;6.764;2022-10-16T03:12:32;11.30;;;4.82;;
26502;SDS011;14177;51.520;6.764;2022-10-16T03:22:55;7.20;;;2.95;;
26502;SDS011;14177;51.520;6.764;2022-10-16T03:25:37;4.68;;;1.90;;
26502;SDS011;14177;51.520;6.764;2022-10-16T03:28:04;3.78;;;1.88;;
26502;SDS011;14177;51.520;6.764;2022-10-16T03:30:45;5.50;;;2.03;;
26502;SDS011;14177;51.520;6.764;2022-10-16T03:33:12;4.72;;;2.28;;
26502;SDS011;14177;51.520;6.764;2022-10-16T03:35:39;2.47;;;1.15;;
26502;SDS011;14177;51.520;6.764;2022-10-16T03:38:18;3.65;;;1.70;;
26502;SDS011;14177;51.520;6.764;2022-10-16T03:40:56;4.45;;;1.38;;
26502;SDS011;14177;51.520;6.764;2022-10-16T03:43:29;3.35;;;1.20;;
26502;SDS011;14177;51.520;6.764;2022-10-16T03:46:13;3.03;;;1.48;;
26502;SDS011;14177;51.520;6.764;2022-10-16T03:48:53;4.95;;;2.47;;
26502;SDS011;14177;51.520;6.764;2022-10-16T03:54:41;3.53;;;1.60;;
26502;SDS011;14177;51.520;6.764;2022-10-16T03:57:17;2.13;;;1.17;;
26502;SDS011;14177;51.520;6.764;2022-10-16T03:59:55;4.80;;;1.17;;
26502;SDS011;14177;51.520;6.764;2022-10-16T04:02:24;2.85;;;1.42;;
26502;SDS011;14177;51.520;6.764;2022-10-16T04:05:17;2.85;;;1.33;;
26502;SDS011;14177;51.520;6.764;2022-10-16T04:07:50;4.93;;;1.35;;
26502;SDS011;14177;51.520;6.764;2022-10-16T04:10:26;5.60;;;1.30;;
26502;SDS011;14177;51.520;6.764;2022-10-16T04:13:35;4.32;;;1.00;;
26502;SDS011;14177;51.520;6.764;2022-10-16T04:16:10;2.78;;;1.40;;
26502;SDS011;14177;51.520;6.764;2022-10-16T04:19:03;6.22;;;1.27;;
26502;SDS011;14177;51.520;6.764;2022-10-16T04:21:30;4.85;;;1.80;;
26502;SDS011;14177;51.520;6.764;2022-10-16T04:23:58;2.83;;;0.82;;
26502;SDS011;14177;51.520;6.764;2022-10-16T04:27:28;2.58;;;1.20;;
26502;SDS011;14177;51.520;6.764;2022-10-16T04:29:58;4.53;;;1.20;;
26502;SDS011;14177;51.520;6.764;2022-10-16T04:32:52;2.70;;;1.00;;
26502;SDS011;14177;51.520;6.764;2022-10-16T04:35:20;2.78;;;1.20;;
26502;SDS011;14177;51.520;6.764;2022-10-16T04:37:58;4.10;;;1.58;;
26502;SDS011;14177;51.520;6.764;2022-10-16T04:40:25;2.55;;;0.93;;
26502;SDS011;14177;51.520;6.764;2022-10-16T04:43:02;3.60;;;1.63;;
26502;SDS011;14177;51.520;6.764;2022-10-16T04:45:35;3.10;;;1.20;;
26502;SDS011;14177;51.520;6.764;2022-10-16T04:48:05;2.03;;;1.23;;
26502;SDS011;14177;51.520;6.764;2022-10-16T04:50:41;2.47;;;1.33;;
26502;SDS011;14177;51.520;6.764;2022-10-16T04:53:08;3.00;;;0.93;;
26502;SDS011;14177;51.520;6.764;2022-10-16T04:55:35;2.22;;;0.90;;
26502;SDS011;14177;51.520;6.764;2022-10-16T04:58:28;5.00;;;1.25;;
26502;SDS011;14177;51.520;6.764;2022-10-16T05:00:55;2.08;;;0.88;;
26502;SDS011;14177;51.520;6.764;2022-10-16T05:03:22;3.60;;;1.42;;
26502;SDS011;14177;51.520;6.764;2022-10-16T05:05:49;3.28;;;1.00;;
26502;SDS011;14177;51.520;6.764;2022-10-16T05:08:16;4.05;;;0.95;;
26502;SDS011;14177;51.520;6.764;2022-10-16T05:10:43;1.55;;;0.88;;
26502;SDS011;14177;51.520;6.764;2022-10-16T05:13:11;2.97;;;1.13;;
26502;SDS011;14177;51.520;6.764;2022-10-16T05:15:38;1.98;;;1.25;;
26502;SDS011;14177;51.520;6.764;2022-10-16T05:18:05;2.95;;;1.20;;
26502;SDS011;14177;51.520;6.764;2022-10-16T05:20:32;7.80;;;2.05;;
26502;SDS011;14177;51.520;6.764;2022-10-16T05:22:59;2.55;;;1.67;;
26502;SDS011;14177;51.520;6.764;2022-10-16T05:25:26;2.55;;;1.27;;
26502;SDS011;14177;51.520;6.764;2022-10-16T05:27:53;2.83;;;1.45;;
26502;SDS011;14177;51.520;6.764;2022-10-16T05:30:20;6.35;;;1.80;;
26502;SDS011;14177;51.520;6.764;2022-10-16T05:32:47;4.70;;;1.50;;
26502;SDS011;14177;51.520;6.764;2022-10-16T05:35:16;4.18;;;2.45;;
26502;SDS011;14177;51.520;6.764;2022-10-16T05:37:45;4.57;;;2.10;;
26502;SDS011;14177;51.520;6.764;2022-10-16T05:40:12;2.67;;;1.40;;
26502;SDS011;14177;51.520;6.764;2022-10-16T05:42:40;3.13;;;1.27;;
26502;SDS011;14177;51.520;6.764;2022-10-16T05:45:08;4.63;;;2.08;;
26502;SDS011;14177;51.520;6.764;2022-10-16T05:47:38;4.30;;;1.65;;
26502;SDS011;14177;51.520;6.764;2022-10-16T05:50:05;4.00;;;1.50;;
26502;SDS011;14177;51.520;6.764;2022-10-16T05:52:32;5.18;;;1.88;;
26502;SDS011;14177;51.520;6.764;2022-10-16T05:54:59;2.65;;;1.50;;
26502;SDS011;14177;51.520;6.764;2022-10-16T05:57:26;2.63;;;1.65;;
26502;SDS011;14177;51.520;6.764;2022-10-16T05:59:54;2.20;;;1.30;;
26502;SDS011;14177;51.520;6.764;2022-10-16T06:02:20;3.65;;;1.80;;
26502;SDS011;14177;51.520;6.764;2022-10-16T06:04:47;4.57;;;1.63;;
26502;SDS011;14177;51.520;6.764;2022-10-16T06:07:14;2.60;;;1.25;;
26502;SDS011;14177;51.520;6.764;2022-10-16T06:09:41;2.75;;;1.58;;
26502;SDS011;14177;51.520;6.764;2022-10-16T06:12:08;4.68;;;1.75;;
26502;SDS011;14177;51.520;6.764;2022-10-16T06:14:35;6.65;;;1.60;;
26502;SDS011;14177;51.520;6.764;2022-10-16T06:17:02;3.70;;;1.38;;
26502;SDS011;14177;51.520;6.764;2022-10-16T06:19:29;3.50;;;1.65;;
26502;SDS011;14177;51.520;6.764;2022-10-16T06:21:56;3.08;;;1.90;;
26502;SDS011;14177;51.520;6.764;2022-10-16T06:24:24;3.22;;;1.50;;
26502;SDS011;14177;51.520;6.764;2022-10-16T06:26:52;2.22;;;1.50;;
26502;SDS011;14177;51.520;6.764;2022-10-16T06:29:19;2.65;;;1.30;;
26502;SDS011;14177;51.520;6.764;2022-10-16T06:31:47;4.55;;;2.17;;
26502;SDS011;14177;51.520;6.764;2022-10-16T06:34:13;5.45;;;2.10;;
26502;SDS011;14177;51.520;6.764;2022-10-16T06:36:40;4.47;;;1.30;;
26502;SDS011;14177;51.520;6.764;2022-10-16T06:39:09;4.50;;;1.70;;
26502;SDS011;14177;51.520;6.764;2022-10-16T06:41:36;3.40;;;1.40;;
26502;SDS011;14177;51.520;6.764;2022-10-16T06:44:14;2.88;;;1.95;;
26502;SDS011;14177;51.520;6.764;2022-10-16T06:46:41;3.13;;;1.42;;
26502;SDS011;14177;51.520;6.764;2022-10-16T06:49:08;3.25;;;1.63;;
26502;SDS011;14177;51.520;6.764;2022-10-16T06:51:35;3.38;;;1.65;;
26502;SDS011;14177;51.520;6.764;2022-10-16T06:54:08;7.80;;;1.52;;
26502;SDS011;14177;51.520;6.764;2022-10-16T06:56:36;3.60;;;1.63;;
26502;SDS011;14177;51.520;6.764;2022-10-16T06:59:03;2.88;;;1.83;;
26502;SDS011;14177;51.520;6.764;2022-10-16T07:01:32;5.38;;;2.13;;
26502;SDS011;14177;51.520;6.764;2022-10-16T07:03:59;4.85;;;1.92;;
26502;SDS011;14177;51.520;6.764;2022-10-16T07:06:29;8.98;;;2.90;;
26502;SDS011;14177;51.520;6.764;2022-10-16T07:09:00;5.68;;;2.10;;
26502;SDS011;14177;51.520;6.764;2022-10-16T07:11:30;3.78;;;1.73;;
26502;SDS011;14177;51.520;6.764;2022-10-16T07:13:57;4.82;;;1.80;;
26502;SDS011;14177;51.520;6.764;2022-10-16T07:16:25;6.95;;;1.75;;
26502;SDS011;14177;51.520;6.764;2022-10-16T07:18:55;6.70;;;2.33;;
26502;SDS011;14177;51.520;6.764;2022-10-16T07:21:28;4.90;;;2.05;;
26502;SDS011;14177;51.520;6.764;2022-10-16T07:24:07;4.57;;;2.20;;
26502;SDS011;14177;51.520;6.764;2022-10-16T07:26:39;6.45;;;2.08;;
26502;SDS011;14177;51.520;6.764;2022-10-16T07:29:13;3.60;;;1.98;;
26502;SDS011;14177;51.520;6.764;2022-10-16T07:31:45;3.72;;;2.00;;
26502;SDS011;14177;51.520;6.764;2022-10-16T07:34:13;3.67;;;1.70;;
26502;SDS011;14177;51.520;6.764;2022-10-16T07:36:43;3.30;;;1.60;;
26502;SDS011;14177;51.520;6.764;2022-10-16T07:39:14;2.28;;;1.40;;
26502;SDS011;14177;51.520;6.764;2022-10-16T07:41:41;7.57;;;2.50;;
26502;SDS011;14177;51.520;6.764;2022-10-16T07:44:07;4.45;;;1.60;;
26502;SDS011;14177;51.520;6.764;2022-10-16T07:46:35;4.60;;;2.10;;
26502;SDS011;14177;51.520;6.764;2022-10-16T07:49:02;6.15;;;1.80;;
26502;SDS011;14177;51.520;6.764;2022-10-16T07:51:29;5.13;;;1.63;;
26502;SDS011;14177;51.520;6.764;2022-10-16T07:53:57;3.55;;;1.70;;
26502;SDS011;14177;51.520;6.764;2022-10-16T07:56:23;4.53;;;1.77;;
26502;SDS011;14177;51.520;6.764;2022-10-16T07:58:51;3.78;;;1.60;;
26502;SDS011;14177;51.520;6.764;2022-10-16T08:01:18;8.05;;;2.15;;
26502;SDS011;14177;51.520;6.764;2022-10-16T08:03:46;3.42;;;1.60;;
26502;SDS011;14177;51.520;6.764;2022-10-16T08:06:16;4.10;;;1.73;;
26502;SDS011;14177;51.520;6.764;2022-10-16T08:08:52;3.58;;;1.50;;
26502;SDS011;14177;51.520;6.764;2022-10-16T08:11:19;4.05;;;1.40;;
26502;SDS011;14177;51.520;6.764;2022-10-16T08:13:45;5.10;;;2.00;;
26502;SDS011;14177;51.520;6.764;2022-10-16T08:16:12;2.78;;;1.88;;
26502;SDS011;14177;51.520;6.764;2022-10-16T08:18:40;8.40;;;2.25;;
26502;SDS011;14177;51.520;6.764;2022-10-16T08:21:11;7.53;;;2.53;;
26502;SDS011;14177;51.520;6.764;2022-10-16T08:23:46;8.20;;;1.67;;
26502;SDS011;14177;51.520;6.764;2022-10-16T08:26:22;5.25;;;1.88;;
26502;SDS011;14177;51.520;6.764;2022-10-16T08:28:49;8.93;;;2.42;;
26502;SDS011;14177;51.520;6.764;2022-10-16T08:31:18;8.15;;;3.05;;
26502;SDS011;14177;51.520;6.764;2022-10-16T08:33:45;7.22;;;2.63;;
26502;SDS011;14177;51.520;6.764;2022-10-16T08:36:13;7.05;;;2.30;;
26502;SDS011;14177;51.520;6.764;2022-10-16T08:38:42;6.70;;;2.40;;
26502;SDS011;14177;51.520;6.764;2022-10-16T08:41:23;3.55;;;1.88;;
26502;SDS011;14177;51.520;6.764;2022-10-16T08:47:26;6.57;;;1.92;;
26502;SDS011;14177;51.520;6.764;2022-10-16T08:50:29;5.68;;;1.50;;
26502;SDS011;14177;51.520;6.764;2022-10-16T08:52:59;3.78;;;1.73;;
26502;SDS011;14177;51.520;6.764;2022-10-16T08:55:30;8.27;;;1.63;;
26502;SDS011;14177;51.520;6.764;2022-10-16T08:58:10;4.15;;;1.60;;
26502;SDS011;14177;51.520;6.764;2022-10-16T09:09:54;7.95;;;1.15;;
26502;SDS011;14177;51.520;6.764;2022-10-16T09:15:32;8.98;;;1.30;;
26502;SDS011;14177;51.520;6.764;2022-10-16T09:18:18;3.47;;;0.95;;
26502;SDS011;14177;51.520;6.764;2022-10-16T09:21:19;3.03;;;1.00;;
26502;SDS011;14177;51.520;6.764;2022-10-16T09:23:57;4.10;;;1.08;;
26502;SDS011;14177;51.520;6.764;2022-10-16T09:26:41;3.35;;;1.00;;
26502;SDS011;14177;51.520;6.764;2022-10-16T09:29:11;6.53;;;1.10;;
26502;SDS011;14177;51.520;6.764;2022-10-16T09:31:41;2.33;;;0.70;;
26502;SDS011;14177;51.520;6.764;2022-10-16T09:34:30;3.72;;;1.23;;
26502;SDS011;14177;51.520;6.764;2022-10-16T09:37:01;6.00;;;1.17;;
26502;SDS011;14177;51.520;6.764;2022-10-16T09:39:48;2.17;;;0.73;;
26502;SDS011;14177;51.520;6.764;2022-10-16T09:42:20;3.08;;;1.35;;
26502;SDS011;14177;51.520;6.764;2022-10-16T09:45:00;2.58;;;1.02;;
26502;SDS011;14177;51.520;6.764;2022-10-16T09:47:29;2.72;;;0.80;;
26502;SDS011;14177;51.520;6.764;2022-10-16T09:50:02;4.28;;;1.42;;
26502;SDS011;14177;51.520;6.764;2022-10-16T09:52:45;3.38;;;1.05;;
26502;SDS011;14177;51.520;6.764;2022-10-16T09:55:14;3.53;;;0.90;;
26502;SDS011;14177;51.520;6.764;2022-10-16T09:57:50;4.93;;;1.10;;
26502;SDS011;14177;51.520;6.764;2022-10-16T10:00:18;2.92;;;0.80;;
26502;SDS011;14177;51.520;6.764;2022-10-16T10:03:08;2.20;;;0.70;;
26502;SDS011;14177;51.520;6.764;2022-10-16T10:05:43;1.80;;;0.77;;
26502;SDS011;14177;51.520;6.764;2022-10-16T10:08:15;4.75;;;0.73;;
26502;SDS011;14177;51.520;6.764;2022-10-16T10:10:54;7.63;;;1.38;;
26502;SDS011;14177;51.520;6.764;2022-10-16T10:14:24;5.88;;;0.73;;
26502;SDS011;14177;51.520;6.764;2022-10-16T10:17:23;4.93;;;1.60;;
26502;SDS011;14177;51.520;6.764;2022-10-16T10:19:59;2.58;;;0.90;;
26502;SDS011;14177;51.520;6.764;2022-10-16T10:22:49;3.10;;;0.80;;
26502;SDS011;14177;51.520;6.764;2022-10-16T10:25:21;2.13;;;0.70;;
26502;SDS011;14177;51.520;6.764;2022-10-16T10:33:45;2.33;;;0.70;;
26502;SDS011;14177;51.520;6.764;2022-10-16T10:41:53;6.72;;;0.65;;
26502;SDS011;14177;51.520;6.764;2022-10-16T10:56:09;3.25;;;0.55;;
26502;SDS011;14177;51.520;6.764;2022-10-16T11:02:15;2.63;;;0.70;;
26502;SDS011;14177;51.520;6.764;2022-10-16T11:07:52;3.75;;;0.65;;
26502;SDS011;14177;51.520;6.764;2022-10-16T11:13:27;3.22;;;0.70;;
26502;SDS011;14177;51.520;6.764;2022-10-16T11:16:15;4.63;;;0.70;;
26502;SDS011;14177;51.520;6.764;2022-10-16T11:22:01;5.25;;;0.60;;
26502;SDS011;14177;51.520;6.764;2022-10-16T11:24:37;3.15;;;0.70;;
26502;SDS011;14177;51.520;6.764;2022-10-16T11:27:17;3.08;;;0.60;;
26502;SDS011;14177;51.520;6.764;2022-10-16T11:29:56;1.98;;;0.57;;
26502;SDS011;14177;51.520;6.764;2022-10-16T11:32:28;2.40;;;0.77;;
26502;SDS011;14177;51.520;6.764;2022-10-16T11:35:08;3.40;;;0.80;;
26502;SDS011;14177;51.520;6.764;2022-10-16T11:37:58;2.97;;;0.50;;
26502;SDS011;14177;51.520;6.764;2022-10-16T11:40:32;1.65;;;0.40;;
26502;SDS011;14177;51.520;6.764;2022-10-16T11:43:12;5.70;;;0.82;;
26502;SDS011;14177;51.520;6.764;2022-10-16T11:46:30;3.00;;;0.40;;
26502;SDS011;14177;51.520;6.764;2022-10-16T11:51:42;4.85;;;0.77;;
26502;SDS011;14177;51.520;6.764;2022-10-16T11:54:24;3.50;;;0.60;;
26502;SDS011;14177;51.520;6.764;2022-10-16T11:57:15;1.65;;;0.38;;
26502;SDS011;14177;51.520;6.764;2022-10-16T12:00:08;3.13;;;0.68;;
26502;SDS011;14177;51.520;6.764;2022-10-16T12:02:54;4.18;;;0.47;;
26502;SDS011;14177;51.520;6.764;2022-10-16T12:08:17;2.92;;;0.80;;
26502;SDS011;14177;51.520;6.764;2022-10-16T12:10:45;2.53;;;0.50;;
26502;SDS011;14177;51.520;6.764;2022-10-16T12:18:39;2.83;;;0.60;;
26502;SDS011;14177;51.520;6.764;2022-10-16T12:21:08;1.05;;;0.35;;
26502;SDS011;14177;51.520;6.764;2022-10-16T12:26:28;1.48;;;0.60;;
26502;SDS011;14177;51.520;6.764;2022-10-16T12:29:37;1.88;;;0.68;;
26502;SDS011;14177;51.520;6.764;2022-10-16T12:32:04;5.50;;;0.70;;
26502;SDS011;14177;51.520;6.764;2022-10-16T12:35:22;1.65;;;0.50;;
26502;SDS011;14177;51.520;6.764;2022-10-16T12:38:06;3.72;;;0.80;;
26502;SDS011;14177;51.520;6.764;2022-10-16T12:40:43;2.55;;;0.40;;
26502;SDS011;14177;51.520;6.764;2022-10-16T12:48:37;5.93;;;0.90;;
26502;SDS011;14177;51.520;6.764;2022-10-16T12:51:52;2.63;;;0.93;;
26502;SDS011;14177;51.520;6.764;2022-10-16T12:54:55;2.50;;;0.77;;
26502;SDS011;14177;51.520;6.764;2022-10-16T13:00:25;3.03;;;0.60;;
26502;SDS011;14177;51.520;6.764;2022-10-16T13:03:17;2.38;;;0.90;;
26502;SDS011;14177;51.520;6.764;2022-10-16T13:14:58;1.52;;;0.73;;
26502;SDS011;14177;51.520;6.764;2022-10-16T13:17:46;1.83;;;0.60;;
26502;SDS011;14177;51.520;6.764;2022-10-16T13:23:17;5.93;;;1.00;;
26502;SDS011;14177;51.520;6.764;2022-10-16T13:26:42;4.50;;;0.95;;
26502;SDS011;14177;51.520;6.764;2022-10-16T13:28:52;6.07;;;1.65;;
26502;SDS011;14177;51.520;6.764;2022-10-16T13:31:23;4.05;;;1.40;;
26502;SDS011;14177;51.520;6.764;2022-10-16T13:33:51;4.80;;;1.60;;
26502;SDS011;14177;51.520;6.764;2022-10-16T13:36:26;3.70;;;1.45;;
26502;SDS011;14177;51.520;6.764;2022-10-16T13:44:49;5.30;;;1.20;;
26502;SDS011;14177;51.520;6.764;2022-10-16T13:47:28;3.53;;;1.00;;
26502;SDS011;14177;51.520;6.764;2022-10-16T13:50:09;5.22;;;1.33;;
26502;SDS011;14177;51.520;6.764;2022-10-16T13:52:40;5.55;;;1.95;;
26502;SDS011;14177;51.520;6.764;2022-10-16T13:55:17;4.18;;;1.27;;
26502;SDS011;14177;51.520;6.764;2022-10-16T13:57:44;2.45;;;0.65;;
26502;SDS011;14177;51.520;6.764;2022-10-16T14:02:54;3.60;;;1.13;;
26502;SDS011;14177;51.520;6.764;2022-10-16T14:05:27;5.68;;;1.55;;
26502;SDS011;14177;51.520;6.764;2022-10-16T14:07:54;4.90;;;1.80;;
26502;SDS011;14177;51.520;6.764;2022-10-16T14:10:25;5.72;;;1.10;;
26502;SDS011;14177;51.520;6.764;2022-10-16T14:15:32;3.75;;;1.00;;
26502;SDS011;14177;51.520;6.764;2022-10-16T14:18:02;4.95;;;1.02;;
26502;SDS011;14177;51.520;6.764;2022-10-16T14:20:31;6.20;;;1.30;;
26502;SDS011;14177;51.520;6.764;2022-10-16T14:23:02;2.17;;;0.70;;
26502;SDS011;14177;51.520;6.764;2022-10-16T14:25:44;6.53;;;1.10;;
26502;SDS011;14177;51.520;6.764;2022-10-16T14:28:17;3.72;;;1.20;;
26502;SDS011;14177;51.520;6.764;2022-10-16T14:30:58;3.20;;;1.10;;
26502;SDS011;14177;51.520;6.764;2022-10-16T14:35:59;3.47;;;0.98;;
26502;SDS011;14177;51.520;6.764;2022-10-16T14:38:31;2.67;;;1.10;;
26502;SDS011;14177;51.520;6.764;2022-10-16T14:40:59;3.15;;;0.88;;
26502;SDS011;14177;51.520;6.764;2022-10-16T14:46:12;3.88;;;1.30;;
26502;SDS011;14177;51.520;6.764;2022-10-16T14:48:54;3.55;;;1.45;;
26502;SDS011;14177;51.520;6.764;2022-10-16T14:55:15;3.53;;;1.50;;
26502;SDS011;14177;51.520;6.764;2022-10-16T14:57:43;5.45;;;1.30;;
26502;SDS011;14177;51.520;6.764;2022-10-16T15:00:15;5.50;;;2.45;;
26502;SDS011;14177;51.520;6.764;2022-10-16T15:02:51;6.55;;;1.80;;
26502;SDS011;14177;51.520;6.764;2022-10-16T15:05:25;5.88;;;3.05;;
26502;SDS011;14177;51.520;6.764;2022-10-16T15:07:54;4.38;;;2.38;;
26502;SDS011;14177;51.520;6.764;2022-10-16T15:10:22;2.65;;;1.17;;
26502;SDS011;14177;51.520;6.764;2022-10-16T15:12:52;6.65;;;1.10;;
26502;SDS011;14177;51.520;6.764;2022-10-16T15:15:24;4.35;;;1.55;;
26502;SDS011;14177;51.520;6.764;2022-10-16T15:18:08;3.47;;;1.58;;
26502;SDS011;14177;51.520;6.764;2022-10-16T15:20:36;3.05;;;1.30;;
26502;SDS011;14177;51.520;6.764;2022-10-16T15:23:15;3.28;;;1.15;;
26502;SDS011;14177;51.520;6.764;2022-10-16T15:25:52;2.92;;;1.23;;
26502;SDS011;14177;51.520;6.764;2022-10-16T15:28:23;6.88;;;2.00;;
26502;SDS011;14177;51.520;6.764;2022-10-16T15:30:52;4.90;;;1.20;;
26502;SDS011;14177;51.520;6.764;2022-10-16T15:33:23;5.13;;;1.40;;
26502;SDS011;14177;51.520;6.764;2022-10-16T15:35:54;3.25;;;1.15;;
26502;SDS011;14177;51.520;6.764;2022-10-16T15:38:22;4.72;;;1.60;;
26502;SDS011;14177;51.520;6.764;2022-10-16T15:40:54;5.40;;;1.70;;
26502;SDS011;14177;51.520;6.764;2022-10-16T15:43:21;5.00;;;1.33;;
26502;SDS011;14177;51.520;6.764;2022-10-16T15:48:46;6.07;;;1.80;;
26502;SDS011;14177;51.520;6.764;2022-10-16T15:51:14;5.47;;;2.15;;
26502;SDS011;14177;51.520;6.764;2022-10-16T15:53:42;4.30;;;1.80;;
26502;SDS011;14177;51.520;6.764;2022-10-16T15:56:10;6.93;;;1.98;;
26502;SDS011;14177;51.520;6.764;2022-10-16T15:58:38;4.03;;;1.52;;
26502;SDS011;14177;51.520;6.764;2022-10-16T16:01:05;7.28;;;1.95;;
26502;SDS011;14177;51.520;6.764;2022-10-16T16:03:34;4.97;;;1.95;;
26502;SDS011;14177;51.520;6.764;2022-10-16T16:06:05;4.55;;;2.13;;
26502;SDS011;14177;51.520;6.764;2022-10-16T16:08:37;7.20;;;3.33;;
26502;SDS011;14177;51.520;6.764;2022-10-16T16:11:09;6.85;;;3.35;;
26502;SDS011;14177;51.520;6.764;2022-10-16T16:13:39;8.93;;;3.17;;
26502;SDS011;14177;51.520;6.764;2022-10-16T16:16:08;6.32;;;3.00;;
26502;SDS011;14177;51.520;6.764;2022-10-16T16:18:40;8.82;;;2.67;;
26502;SDS011;14177;51.520;6.764;2022-10-16T16:21:10;6.70;;;2.50;;
26502;SDS011;14177;51.520;6.764;2022-10-16T16:23:40;4.60;;;2.53;;
26502;SDS011;14177;51.520;6.764;2022-10-16T16:26:09;6.85;;;2.78;;
26502;SDS011;14177;51.520;6.764;2022-10-16T16:28:41;5.45;;;2.83;;
26502;SDS011;14177;51.520;6.764;2022-10-16T16:31:09;5.18;;;2.30;;
26502;SDS011;14177;51.520;6.764;2022-10-16T16:33:36;4.50;;;2.53;;
26502;SDS011;14177;51.520;6.764;2022-10-16T16:36:04;9.10;;;3.13;;
26502;SDS011;14177;51.520;6.764;2022-10-16T16:38:38;4.50;;;2.05;;
26502;SDS011;14177;51.520;6.764;2022-10-16T16:41:14;4.78;;;2.60;;
26502;SDS011;14177;51.520;6.764;2022-10-16T16:44:00;4.72;;;2.95;;
26502;SDS011;14177;51.520;6.764;2022-10-16T16:46:37;7.15;;;3.70;;
26502;SDS011;14177;51.520;6.764;2022-10-16T16:49:11;8.82;;;4.18;;
26502;SDS011;14177;51.520;6.764;2022-10-16T16:51:52;7.78;;;4.93;;
26502;SDS011;14177;51.520;6.764;2022-10-16T16:54:31;9.32;;;4.82;;
26502;SDS011;14177;51.520;6.764;2022-10-16T16:57:02;13.68;;;6.78;;
26502;SDS011;14177;51.520;6.764;2022-10-16T16:59:33;12.25;;;6.80;;
26502;SDS011;14177;51.520;6.764;2022-10-16T17:02:00;13.77;;;8.25;;
26502;SDS011;14177;51.520;6.764;2022-10-16T17:04:28;14.55;;;7.45;;
26502;SDS011;14177;51.520;6.764;2022-10-16T17:06:58;17.55;;;8.82;;
26502;SDS011;14177;51.520;6.764;2022-10-16T17:09:32;22.40;;;10.65;;
26502;SDS011;14177;51.520;6.764;2022-10-16T17:12:01;18.13;;;9.52;;
26502;SDS011;14177;51.520;6.764;2022-10-16T17:14:30;15.75;;;8.38;;
26502;SDS011;14177;51.520;6.764;2022-10-16T17:17:03;12.95;;;5.50;;
26502;SDS011;14177;51.520;6.764;2022-10-16T17:19:33;8.85;;;5.32;;
26502;SDS011;14177;51.520;6.764;2022-10-16T17:22:00;5.43;;;3.60;;
26502;SDS011;14177;51.520;6.764;2022-10-16T17:24:33;6.05;;;3.47;;
26502;SDS011;14177;51.520;6.764;2022-10-16T17:27:00;8.32;;;2.92;;
26502;SDS011;14177;51.520;6.764;2022-10-16T17:29:32;4.28;;;2.50;;
26502;SDS011;14177;51.520;6.764;2022-10-16T17:32:00;9.63;;;2.40;;
26502;SDS011;14177;51.520;6.764;2022-10-16T17:34:33;3.63;;;2.10;;
26502;SDS011;14177;51.520;6.764;2022-10-16T17:37:01;5.72;;;3.42;;
26502;SDS011;14177;51.520;6.764;2022-10-16T17:39:31;10.75;;;4.43;;
26502;SDS011;14177;51.520;6.764;2022-10-16T17:41:58;8.65;;;4.57;;
26502;SDS011;14177;51.520;6.764;2022-10-16T17:44:33;7.88;;;5.13;;
26502;SDS011;14177;51.520;6.764;2022-10-16T17:47:00;9.88;;;5.63;;
26502;SDS011;14177;51.520;6.764;2022-10-16T17:49:27;14.43;;;5.50;;
26502;SDS011;14177;51.520;6.764;2022-10-16T17:51:59;11.88;;;6.72;;
26502;SDS011;14177;51.520;6.764;2022-10-16T17:54:28;10.48;;;7.10;;
26502;SDS011;14177;51.520;6.764;2022-10-16T17:57:05;8.65;;;5.70;;
26502;SDS011;14177;51.520;6.764;2022-10-16T17:59:33;13.55;;;6.10;;
26502;SDS011;14177;51.520;6.764;2022-10-16T18:02:02;9.57;;;5.88;;
26502;SDS011;14177;51.520;6.764;2022-10-16T18:04:30;10.65;;;5.68;;
26502;SDS011;14177;51.520;6.764;2022-10-16T18:06:58;8.10;;;3.92;;
26502;SDS011;14177;51.520;6.764;2022-10-16T18:09:38;11.93;;;4.07;;
26502;SDS011;14177;51.520;6.764;2022-10-16T18:12:36;7.72;;;2.95;;
26502;SDS011;14177;51.520;6.764;2022-10-16T18:15:07;5.78;;;3.03;;
26502;SDS011;14177;51.520;6.764;2022-10-16T18:17:36;4.75;;;3.10;;
26502;SDS011;14177;51.520;6.764;2022-10-16T18:20:04;8.48;;;3.50;;
26502;SDS011;14177;51.520;6.764;2022-10-16T18:22:34;5.18;;;2.88;;
26502;SDS011;14177;51.520;6.764;2022-10-16T18:25:03;9.32;;;2.97;;
26502;SDS011;14177;51.520;6.764;2022-10-16T18:27:37;5.28;;;2.70;;
26502;SDS011;14177;51.520;6.764;2022-10-16T18:30:05;5.68;;;2.90;;
26502;SDS011;14177;51.520;6.764;2022-10-16T18:32:33;4.65;;;2.65;;
26502;SDS011;14177;51.520;6.764;2022-10-16T18:35:01;6.72;;;2.53;;
26502;SDS011;14177;51.520;6.764;2022-10-16T18:37:29;4.82;;;2.55;;
26502;SDS011;14177;51.520;6.764;2022-10-16T18:39:56;4.95;;;2.40;;
26502;SDS011;14177;51.520;6.764;2022-10-16T18:42:23;5.93;;;2.78;;
26502;SDS011;14177;51.520;6.764;2022-10-16T18:44:52;6.20;;;3.05;;
26502;SDS011;14177;51.520;6.764;2022-10-16T18:47:22;12.43;;;6.32;;
26502;SDS011;14177;51.520;6.764;2022-10-16T18:49:50;13.45;;;7.32;;
26502;SDS011;14177;51.520;6.764;2022-10-16T18:52:20;13.35;;;7.65;;
26502;SDS011;14177;51.520;6.764;2022-10-16T18:54:57;15.95;;;6.93;;
26502;SDS011;14177;51.520;6.764;2022-10-16T18:57:26;9.15;;;4.70;;
26502;SDS011;14177;51.520;6.764;2022-10-16T19:00:36;7.68;;;3.47;;
26502;SDS011;14177;51.520;6.764;2022-10-16T19:03:04;8.57;;;3.70;;
26502;SDS011;14177;51.520;6.764;2022-10-16T19:05:32;16.35;;;6.97;;
26502;SDS011;14177;51.520;6.764;2022-10-16T19:08:08;11.63;;;4.28;;
26502;SDS011;14177;51.520;6.764;2022-10-16T19:11:38;8.45;;;4.43;;
26502;SDS011;14177;51.520;6.764;2022-10-16T19:15:07;9.00;;;4.70;;
26502;SDS011;14177;51.520;6.764;2022-10-16T19:18:02;7.85;;;4.32;;